createdAt,value
2022-11-29T00:01:34.461Z,8.67
2022-11-29T00:04:03.196Z,8.66
2022-11-29T00:06:32.803Z,8.66
2022-11-29T00:09:06.089Z,8.64
2022-11-29T00:11:54.816Z,8.62
2022-11-29T00:14:23.793Z,8.61
2022-11-29T00:16:53.352Z,8.60
2022-11-29T00:19:21.586Z,8.58
2022-11-29T00:21:49.998Z,8.58
2022-11-29T00:24:18.485Z,8.59
2022-11-29T00:26:48.116Z,8.60
2022-11-29T00:29:16.323Z,8.59
2022-11-29T00:31:44.832Z,8.60
2022-11-29T00:34:13.485Z,8.61
2022-11-29T00:36:41.841Z,8.61
2022-11-29T00:39:11.645Z,8.61
2022-11-29T00:41:40.081Z,8.62
2022-11-29T00:44:12.834Z,8.63
2022-11-29T00:46:43.575Z,8.61
2022-11-29T00:49:11.532Z,8.62
2022-11-29T00:51:39.661Z,8.63
2022-11-29T00:54:07.646Z,8.64
2022-11-29T00:56:35.806Z,8.64
2022-11-29T00:59:03.730Z,8.63
2022-11-29T01:01:33.270Z,8.62
2022-11-29T01:04:01.453Z,8.61
2022-11-29T01:06:29.604Z,8.62
2022-11-29T01:08:57.505Z,8.63
2022-11-29T01:11:27.711Z,8.63
2022-11-29T01:13:57.345Z,8.62
2022-11-29T01:16:26.124Z,8.64
2022-11-29T01:18:55.438Z,8.64
2022-11-29T01:21:25.014Z,8.65
2022-11-29T01:23:53.754Z,8.66
2022-11-29T01:26:23.761Z,8.68
2022-11-29T01:28:53.234Z,8.70
2022-11-29T01:31:23.969Z,8.72
2022-11-29T01:33:55.733Z,8.75
2022-11-29T01:36:24.408Z,8.76
2022-11-29T01:38:52.571Z,8.76
2022-11-29T01:41:23.447Z,8.74
2022-11-29T01:44:00.495Z,8.73
2022-11-29T01:46:30.017Z,8.72
2022-11-29T01:49:03.093Z,8.73
2022-11-29T01:51:31.897Z,8.73
2022-11-29T01:53:59.930Z,8.72
2022-11-29T01:56:29.489Z,8.71
2022-11-29T01:58:57.498Z,8.71
2022-11-29T02:01:26.581Z,8.73
2022-11-29T02:03:54.883Z,8.75
2022-11-29T02:06:24.610Z,8.76
2022-11-29T02:08:52.558Z,8.76
2022-11-29T02:11:48.689Z,8.79
2022-11-29T02:14:31.105Z,8.81
2022-11-29T02:17:04.413Z,8.80
2022-11-29T02:19:57.487Z,8.82
2022-11-29T02:22:32.008Z,8.83
2022-11-29T02:25:11.700Z,8.83
2022-11-29T02:28:13.802Z,8.84
2022-11-29T02:30:56.363Z,8.85
2022-11-29T02:33:43.493Z,8.86
2022-11-29T02:36:26.332Z,8.85
2022-11-29T02:39:09.014Z,8.85
2022-11-29T02:41:50.703Z,8.81
2022-11-29T02:44:52.121Z,8.82
2022-11-29T02:47:27.185Z,8.82
2022-11-29T02:50:12.424Z,8.80
2022-11-29T02:52:46.690Z,8.76
2022-11-29T02:55:19.181Z,8.74
2022-11-29T02:57:53.168Z,8.74
2022-11-29T03:00:22.763Z,8.74
2022-11-29T03:02:56.900Z,8.72
2022-11-29T03:05:33.546Z,8.70
2022-11-29T03:08:07.199Z,8.70
2022-11-29T03:10:40.704Z,8.71
2022-11-29T03:13:14.673Z,8.72
2022-11-29T03:15:53.807Z,8.74
2022-11-29T03:18:33.840Z,8.72
2022-11-29T03:21:09.934Z,8.71
2022-11-29T03:23:39.280Z,8.70
2022-11-29T03:26:10.317Z,8.72
2022-11-29T03:28:40.159Z,8.72
2022-11-29T03:31:14.151Z,8.73
2022-11-29T03:33:48.921Z,8.75
2022-11-29T03:36:25.034Z,8.77
2022-11-29T03:38:53.808Z,8.76
2022-11-29T03:41:26.487Z,8.77
2022-11-29T03:43:58.524Z,8.75
2022-11-29T03:46:31.726Z,8.74
2022-11-29T03:49:03.794Z,8.75
2022-11-29T03:51:40.333Z,8.74
2022-11-29T03:54:11.414Z,8.73
2022-11-29T03:56:41.339Z,8.73
2022-11-29T03:59:22.997Z,8.75
2022-11-29T04:02:03.775Z,8.75
2022-11-29T04:04:55.765Z,8.75
2022-11-29T04:07:40.498Z,8.75
2022-11-29T04:10:16.368Z,8.78
2022-11-29T04:13:21.751Z,8.80
2022-11-29T04:16:07.461Z,8.79
2022-11-29T04:19:00.220Z,8.81
2022-11-29T04:21:45.645Z,8.81
2022-11-29T04:24:44.532Z,8.83
2022-11-29T04:27:30.845Z,8.84
2022-11-29T04:30:07.748Z,8.82
2022-11-29T04:32:52.625Z,8.84
2022-11-29T04:35:36.621Z,8.83
2022-11-29T04:38:16.408Z,8.80
2022-11-29T04:40:57.292Z,8.78
2022-11-29T04:43:49.673Z,8.79
2022-11-29T04:46:31.366Z,8.79
2022-11-29T04:49:26.889Z,8.78
2022-11-29T04:52:08.086Z,8.77
2022-11-29T04:54:40.489Z,8.74
2022-11-29T04:57:14.103Z,8.74
2022-11-29T04:59:45.672Z,8.73
2022-11-29T05:02:28.923Z,8.72
2022-11-29T05:05:00.494Z,8.69
2022-11-29T05:07:32.402Z,8.68
2022-11-29T05:10:07.872Z,8.65
2022-11-29T05:12:43.500Z,8.63
2022-11-29T05:15:25.007Z,8.63
2022-11-29T05:18:04.555Z,8.62
2022-11-29T05:20:40.072Z,8.64
2022-11-29T05:23:23.410Z,8.66
2022-11-29T05:25:55.624Z,8.68
2022-11-29T05:28:31.185Z,8.70
2022-11-29T05:31:17.226Z,8.69
2022-11-29T05:34:21.791Z,8.67
2022-11-29T05:36:57.256Z,8.64
2022-11-29T05:39:36.854Z,8.64
2022-11-29T05:42:18.573Z,8.61
2022-11-29T05:44:50.464Z,8.60
2022-11-29T05:47:26.879Z,8.60
2022-11-29T05:50:05.550Z,8.61
2022-11-29T05:52:43.209Z,8.60
2022-11-29T05:55:25.903Z,8.61
2022-11-29T05:57:57.798Z,8.61
2022-11-29T06:00:30.233Z,8.60
2022-11-29T06:03:03.626Z,8.60
2022-11-29T06:05:36.399Z,8.58
2022-11-29T06:08:09.006Z,8.56
2022-11-29T06:10:40.893Z,8.53
2022-11-29T06:13:21.832Z,8.52
2022-11-29T06:16:15.826Z,8.50
2022-11-29T06:18:59.941Z,8.48
2022-11-29T06:21:34.365Z,8.47
2022-11-29T06:24:25.896Z,8.46
2022-11-29T06:27:09.213Z,8.44
2022-11-29T06:29:45.296Z,8.45
2022-11-29T06:32:22.286Z,8.44
2022-11-29T06:34:54.427Z,8.46
2022-11-29T06:37:25.392Z,8.46
2022-11-29T06:39:55.236Z,8.45
2022-11-29T06:42:23.527Z,8.43
2022-11-29T06:44:52.064Z,8.43
2022-11-29T06:47:29.483Z,8.41
2022-11-29T06:49:59.865Z,8.42
2022-11-29T06:52:37.868Z,8.42
2022-11-29T06:55:15.702Z,8.42
2022-11-29T06:57:51.955Z,8.42
2022-11-29T07:00:22.467Z,8.40
2022-11-29T07:03:07.540Z,8.37
2022-11-29T07:05:36.521Z,8.35
2022-11-29T07:08:07.667Z,8.35
2022-11-29T07:10:38.523Z,8.31
2022-11-29T07:13:07.034Z,8.30
2022-11-29T07:15:36.369Z,8.29
2022-11-29T07:18:14.556Z,8.25
2022-11-29T07:20:52.349Z,8.21
2022-11-29T07:23:28.086Z,8.15
2022-11-29T07:26:05.003Z,8.15
2022-11-29T07:28:43.159Z,8.11
2022-11-29T07:31:17.617Z,8.08
2022-11-29T07:33:53.721Z,8.09
2022-11-29T07:36:30.505Z,8.07
2022-11-29T07:39:09.158Z,8.04
2022-11-29T07:41:42.009Z,8.05
2022-11-29T07:44:21.226Z,8.06
2022-11-29T07:46:49.239Z,8.08
2022-11-29T07:49:18.898Z,8.10
2022-11-29T07:51:46.844Z,8.11
2022-11-29T07:54:18.272Z,8.13
2022-11-29T07:56:46.214Z,8.16
2022-11-29T07:59:14.644Z,8.16
2022-11-29T08:01:42.834Z,8.19
2022-11-29T08:04:11.432Z,8.21
2022-11-29T08:06:40.957Z,8.23
2022-11-29T08:09:09.112Z,8.25
2022-11-29T08:11:37.209Z,8.27
2022-11-29T08:14:06.453Z,8.29
2022-11-29T08:16:34.912Z,8.29
2022-11-29T08:19:03.313Z,8.33
2022-11-29T08:21:31.249Z,8.32
2022-11-29T08:24:00.740Z,8.34
2022-11-29T08:26:31.574Z,8.35
2022-11-29T08:29:00.308Z,8.40
2022-11-29T08:31:28.227Z,8.42
2022-11-29T08:33:56.393Z,8.45
2022-11-29T08:36:24.423Z,8.47
2022-11-29T08:38:59.259Z,8.51
2022-11-29T08:41:32.140Z,8.53
2022-11-29T08:44:00.348Z,8.55
2022-11-29T08:46:48.327Z,8.58
2022-11-29T08:49:16.781Z,8.64
2022-11-29T08:51:44.964Z,8.66
2022-11-29T08:54:12.239Z,8.66
2022-11-29T08:59:29.575Z,8.69
2022-11-29T09:01:57.528Z,8.73
2022-11-29T09:04:25.893Z,8.74
2022-11-29T09:06:53.793Z,8.75
2022-11-29T09:09:22.144Z,8.75
2022-11-29T09:11:51.730Z,8.77
2022-11-29T09:14:22.899Z,8.78
2022-11-29T09:16:51.338Z,8.75
2022-11-29T09:19:19.736Z,8.80
2022-11-29T09:21:47.652Z,8.80
2022-11-29T09:24:15.968Z,8.83
2022-11-29T09:26:46.835Z,8.81
2022-11-29T09:29:17.763Z,8.88
2022-11-29T09:31:45.913Z,8.90
2022-11-29T09:34:14.674Z,8.93
2022-11-29T09:36:43.969Z,8.91
2022-11-29T09:39:13.246Z,8.90
2022-11-29T09:41:52.924Z,8.92
2022-11-29T09:44:29.794Z,8.92
2022-11-29T09:47:03.160Z,8.95
2022-11-29T09:49:43.064Z,8.98
2022-11-29T09:52:15.923Z,9.00
2022-11-29T09:54:56.624Z,9.00
2022-11-29T09:57:26.970Z,8.96
2022-11-29T09:59:59.321Z,8.93
2022-11-29T10:02:34.027Z,8.92
2022-11-29T10:05:08.243Z,8.92
2022-11-29T10:07:39.490Z,8.92
2022-11-29T10:10:12.407Z,8.95
2022-11-29T10:12:43.947Z,8.96
2022-11-29T10:15:17.762Z,8.98
2022-11-29T10:17:49.679Z,9.00
2022-11-29T10:20:19.540Z,9.06
2022-11-29T10:22:53.405Z,9.10
2022-11-29T10:25:25.767Z,9.15
2022-11-29T10:27:54.382Z,9.17
2022-11-29T10:30:24.255Z,9.21
2022-11-29T10:32:57.092Z,9.21
2022-11-29T10:35:25.513Z,9.19
2022-11-29T10:38:22.759Z,9.16
2022-11-29T10:40:47.094Z,9.16
2022-11-29T10:43:15.078Z,9.18
2022-11-29T10:45:50.318Z,9.18
2022-11-29T10:48:19.888Z,9.20
2022-11-29T10:50:49.923Z,9.24
2022-11-29T10:53:19.965Z,9.30
2022-11-29T10:55:51.665Z,9.34
2022-11-29T10:58:27.992Z,9.35
2022-11-29T11:01:00.815Z,9.38
2022-11-29T11:03:39.178Z,9.37
2022-11-29T11:06:10.617Z,9.42
2022-11-29T11:08:39.519Z,9.43
2022-11-29T11:11:08.579Z,9.46
2022-11-29T11:13:37.159Z,9.48
2022-11-29T11:16:12.239Z,9.52
2022-11-29T11:18:40.227Z,9.55
2022-11-29T11:21:10.823Z,9.59
2022-11-29T11:23:43.677Z,9.63
2022-11-29T11:26:13.912Z,9.68
2022-11-29T11:28:45.921Z,9.71
2022-11-29T11:31:15.963Z,9.73
2022-11-29T11:33:45.062Z,9.74
2022-11-29T11:36:15.122Z,9.76
2022-11-29T11:38:50.861Z,9.76
2022-11-29T11:41:44.500Z,9.76
2022-11-29T11:44:46.464Z,9.75
2022-11-29T11:47:17.010Z,9.75
2022-11-29T11:49:49.171Z,9.73
2022-11-29T11:52:21.996Z,9.75
2022-11-29T11:54:53.051Z,9.72
2022-11-29T11:57:22.401Z,9.71
2022-11-29T11:59:51.090Z,9.71
2022-11-29T12:02:37.141Z,9.66
2022-11-29T12:05:10.001Z,9.66
2022-11-29T12:08:07.250Z,9.67
2022-11-29T12:10:34.702Z,9.66
2022-11-29T12:13:03.466Z,9.68
2022-11-29T12:15:34.125Z,9.69
2022-11-29T12:18:07.178Z,9.73
2022-11-29T12:20:39.566Z,9.72
2022-11-29T12:23:23.065Z,9.70
2022-11-29T12:25:53.400Z,9.68
2022-11-29T12:28:22.457Z,9.63
2022-11-29T12:30:57.055Z,9.58
2022-11-29T12:33:37.391Z,9.57
2022-11-29T12:36:25.999Z,9.55
2022-11-29T12:39:05.217Z,9.55
2022-11-29T12:41:40.284Z,9.55
2022-11-29T12:44:19.486Z,9.57
2022-11-29T12:47:02.101Z,9.57
2022-11-29T12:49:51.199Z,9.58
2022-11-29T12:52:23.810Z,9.60
2022-11-29T12:54:59.769Z,9.62
2022-11-29T12:57:34.502Z,9.66
2022-11-29T13:00:08.077Z,9.66
2022-11-29T13:02:44.042Z,9.64
2022-11-29T13:05:20.309Z,9.63
2022-11-29T13:08:05.546Z,9.66
2022-11-29T13:10:43.157Z,9.68
2022-11-29T13:13:19.294Z,9.67
2022-11-29T13:15:51.682Z,9.69
2022-11-29T13:18:23.043Z,9.68
2022-11-29T13:20:57.917Z,9.69
2022-11-29T13:23:45.809Z,9.71
2022-11-29T13:26:19.885Z,9.74
2022-11-29T13:28:47.936Z,9.74
2022-11-29T13:31:19.513Z,9.71
2022-11-29T13:33:57.837Z,9.69
2022-11-29T13:36:33.152Z,9.67
2022-11-29T13:39:09.052Z,9.58
2022-11-29T13:41:42.222Z,9.59
2022-11-29T13:44:16.989Z,9.53
2022-11-29T13:46:48.153Z,9.52
2022-11-29T13:49:22.203Z,9.53
2022-11-29T13:52:05.056Z,9.53
2022-11-29T13:54:34.309Z,9.53
2022-11-29T13:57:04.119Z,9.54
2022-11-29T13:59:33.636Z,9.56
2022-11-29T14:02:01.934Z,9.55
2022-11-29T14:04:34.149Z,9.55
2022-11-29T14:07:06.586Z,9.54
2022-11-29T14:09:37.953Z,9.55
2022-11-29T14:12:36.685Z,9.53
2022-11-29T14:15:16.010Z,9.54
2022-11-29T14:17:53.194Z,9.54
2022-11-29T14:20:58.098Z,9.52
2022-11-29T14:23:40.351Z,9.50
2022-11-29T14:26:28.570Z,9.50
2022-11-29T14:28:57.960Z,9.49
2022-11-29T14:31:50.572Z,9.48
2022-11-29T14:34:39.205Z,9.48
2022-11-29T14:37:20.635Z,9.47
2022-11-29T14:39:52.229Z,9.47
2022-11-29T14:42:21.921Z,9.46
2022-11-29T14:44:52.047Z,9.43
2022-11-29T14:47:26.209Z,9.45
2022-11-29T14:49:57.141Z,9.46
2022-11-29T14:52:30.341Z,9.43
2022-11-29T14:55:02.873Z,9.43
2022-11-29T14:57:53.502Z,9.41
2022-11-29T15:00:23.032Z,9.41
2022-11-29T15:02:52.190Z,9.38
2022-11-29T15:05:22.024Z,9.38
2022-11-29T15:07:53.810Z,9.38
2022-11-29T15:10:26.942Z,9.37
2022-11-29T15:12:54.963Z,9.36
2022-11-29T15:15:35.467Z,9.33
2022-11-29T15:18:12.449Z,9.30
2022-11-29T15:20:54.904Z,9.27
2022-11-29T15:23:22.853Z,9.28
2022-11-29T15:25:54.373Z,9.28
2022-11-29T15:28:23.999Z,9.29
2022-11-29T15:31:01.950Z,9.29
2022-11-29T15:33:30.613Z,9.30
2022-11-29T15:36:06.422Z,9.28
2022-11-29T15:38:42.765Z,9.29
2022-11-29T15:41:22.169Z,9.27
2022-11-29T15:43:53.459Z,9.27
2022-11-29T15:46:22.911Z,9.26
2022-11-29T15:48:50.851Z,9.25
2022-11-29T15:51:25.027Z,9.25
2022-11-29T15:54:11.792Z,9.25
2022-11-29T15:56:45.883Z,9.24
2022-11-29T15:59:19.804Z,9.22
2022-11-29T16:01:49.477Z,9.22
2022-11-29T16:04:19.977Z,9.22
2022-11-29T16:06:48.977Z,9.20
2022-11-29T16:09:18.936Z,9.19
2022-11-29T16:11:48.869Z,9.18
2022-11-29T16:14:21.865Z,9.18
2022-11-29T16:16:53.262Z,9.18
2022-11-29T16:19:32.758Z,9.20
2022-11-29T16:22:15.840Z,9.21
2022-11-29T16:24:53.539Z,9.19
2022-11-29T16:27:23.688Z,9.19
2022-11-29T16:29:52.640Z,9.20
2022-11-29T16:32:26.132Z,9.19
2022-11-29T16:34:54.527Z,9.21
2022-11-29T16:37:24.085Z,9.22
2022-11-29T16:39:53.645Z,9.23
2022-11-29T16:42:26.056Z,9.23
2022-11-29T16:45:21.327Z,9.25
2022-11-29T16:47:52.749Z,9.24
2022-11-29T16:50:22.228Z,9.23
2022-11-29T16:52:56.137Z,9.22
2022-11-29T16:55:24.821Z,9.23
2022-11-29T16:57:54.288Z,9.23
2022-11-29T17:00:25.401Z,9.24
2022-11-29T17:02:53.641Z,9.26
2022-11-29T17:05:21.974Z,9.27
2022-11-29T17:07:50.475Z,9.28
2022-11-29T17:10:20.835Z,9.26
2022-11-29T17:12:50.075Z,9.23
2022-11-29T17:15:19.386Z,9.19
2022-11-29T17:17:47.734Z,9.15
2022-11-29T17:20:15.780Z,9.10
2022-11-29T17:22:43.949Z,9.07
2022-11-29T17:25:12.344Z,9.00
2022-11-29T17:27:40.910Z,8.99
2022-11-29T17:30:11.211Z,8.98
2022-11-29T17:32:40.886Z,8.97
2022-11-29T17:35:09.339Z,8.96
2022-11-29T17:37:37.554Z,8.95
2022-11-29T17:40:06.250Z,8.95
2022-11-29T17:42:34.550Z,8.95
2022-11-29T17:45:02.549Z,8.95
2022-11-29T17:47:30.721Z,8.93
2022-11-29T17:50:00.453Z,8.92
2022-11-29T17:52:28.655Z,8.91
2022-11-29T17:54:56.526Z,8.85
2022-11-29T17:57:24.878Z,8.89
2022-11-29T17:59:52.849Z,8.88
2022-11-29T18:02:21.015Z,8.89
2022-11-29T18:04:48.945Z,8.90
2022-11-29T18:07:18.464Z,8.90
2022-11-29T18:09:47.350Z,8.88
2022-11-29T18:12:15.803Z,8.89
2022-11-29T18:14:43.977Z,8.90
2022-11-29T18:17:12.538Z,8.88
2022-11-29T18:19:40.523Z,8.91
2022-11-29T18:22:09.152Z,8.90
2022-11-29T18:24:41.248Z,8.91
2022-11-29T18:27:09.478Z,8.90
2022-11-29T18:29:45.922Z,8.91
2022-11-29T18:32:14.155Z,8.90
2022-11-29T18:34:42.169Z,8.90
2022-11-29T18:37:15.989Z,8.87
2022-11-29T18:39:49.966Z,8.84
2022-11-29T18:42:18.189Z,8.79
2022-11-29T18:44:46.225Z,8.78
2022-11-29T18:47:14.604Z,8.76
2022-11-29T18:49:42.502Z,8.73
2022-11-29T18:52:10.617Z,8.73
2022-11-29T18:54:38.560Z,8.70
2022-11-29T18:57:08.091Z,8.70
2022-11-29T18:59:35.986Z,8.69
2022-11-29T19:02:04.192Z,8.70
2022-11-29T19:04:32.146Z,8.69
2022-11-29T19:07:00.285Z,8.68
2022-11-29T19:09:28.222Z,8.67
2022-11-29T19:11:56.352Z,8.65
2022-11-29T19:14:25.575Z,8.65
2022-11-29T19:16:53.980Z,8.66
2022-11-29T19:19:21.839Z,8.66
2022-11-29T19:21:50.007Z,8.68
2022-11-29T19:24:18.938Z,8.70
2022-11-29T19:26:50.015Z,8.69
2022-11-29T19:29:18.363Z,8.68
2022-11-29T19:31:48.049Z,8.68
2022-11-29T19:34:16.112Z,8.64
2022-11-29T19:36:45.383Z,8.60
2022-11-29T19:39:15.177Z,8.59
2022-11-29T19:41:44.438Z,8.57
2022-11-29T19:44:13.066Z,8.55
2022-11-29T19:46:43.241Z,8.52
2022-11-29T19:49:13.016Z,8.50
2022-11-29T19:51:41.301Z,8.49
2022-11-29T19:54:10.735Z,8.46
2022-11-29T19:56:39.214Z,8.45
2022-11-29T19:59:08.082Z,8.43
2022-11-29T20:01:42.097Z,8.42
2022-11-29T20:04:13.602Z,8.39
2022-11-29T20:06:42.353Z,8.37
2022-11-29T20:09:10.595Z,8.37
2022-11-29T20:11:38.922Z,8.37
2022-11-29T20:14:08.184Z,8.37
2022-11-29T20:16:37.821Z,8.38
2022-11-29T20:19:09.529Z,8.38
2022-11-29T20:21:43.057Z,8.39
2022-11-29T20:24:12.788Z,8.41
2022-11-29T20:26:42.413Z,8.41
2022-11-29T20:29:12.984Z,8.40
2022-11-29T20:31:49.167Z,8.38
2022-11-29T20:34:17.978Z,8.37
2022-11-29T20:37:08.278Z,8.37
2022-11-29T20:39:42.002Z,8.36
2022-11-29T20:42:31.610Z,8.35
2022-11-29T20:45:01.388Z,8.34
2022-11-29T20:47:34.585Z,8.35
2022-11-29T20:50:02.828Z,8.36
2022-11-29T20:52:39.140Z,8.34
2022-11-29T20:55:09.564Z,8.32
2022-11-29T20:57:38.360Z,8.28
2022-11-29T21:00:07.560Z,8.26
2022-11-29T21:02:35.757Z,8.24
2022-11-29T21:05:03.937Z,8.24
2022-11-29T21:07:33.671Z,8.23
2022-11-29T21:10:02.126Z,8.23
2022-11-29T21:12:31.162Z,8.23
2022-11-29T21:14:59.610Z,8.26
2022-11-29T21:17:33.496Z,8.30
2022-11-29T21:20:02.662Z,8.33
2022-11-29T21:22:38.266Z,8.36
2022-11-29T21:25:11.173Z,8.36
2022-11-29T21:27:39.863Z,8.38
2022-11-29T21:30:13.985Z,8.38
2022-11-29T21:32:42.837Z,8.38
2022-11-29T21:35:10.772Z,8.39
2022-11-29T21:37:40.672Z,8.40
2022-11-29T21:40:10.190Z,8.42
2022-11-29T21:42:38.574Z,8.43
2022-11-29T21:45:13.446Z,8.42
2022-11-29T21:47:43.826Z,8.43
2022-11-29T21:50:12.772Z,8.41
2022-11-29T21:52:44.152Z,8.44
2022-11-29T21:55:12.153Z,8.43
2022-11-29T21:57:40.286Z,8.41
2022-11-29T22:00:09.582Z,8.40
2022-11-29T22:02:37.826Z,8.34
2022-11-29T22:05:07.845Z,8.36
2022-11-29T22:07:36.074Z,8.34
2022-11-29T22:10:12.960Z,8.34
2022-11-29T22:12:51.378Z,8.32
2022-11-29T22:15:24.421Z,8.29
2022-11-29T22:17:54.022Z,8.29
2022-11-29T22:20:22.104Z,8.30
2022-11-29T22:22:51.757Z,8.29
2022-11-29T22:25:23.858Z,8.29
2022-11-29T22:27:52.051Z,8.29
2022-11-29T22:30:21.132Z,8.29
2022-11-29T22:32:49.472Z,8.30
2022-11-29T22:35:17.414Z,8.29
2022-11-29T22:37:45.721Z,8.29
2022-11-29T22:40:14.072Z,8.26
2022-11-29T22:42:43.621Z,8.23
2022-11-29T22:45:12.218Z,8.21
2022-11-29T22:47:40.371Z,8.18
2022-11-29T22:50:09.316Z,8.16
2022-11-29T22:52:37.677Z,8.15
2022-11-29T22:55:06.253Z,8.15
2022-11-29T22:57:34.442Z,8.17
2022-11-29T23:00:04.378Z,8.17
2022-11-29T23:02:32.743Z,8.16
2022-11-29T23:05:00.816Z,8.17
2022-11-29T23:07:29.067Z,8.18
2022-11-29T23:09:57.153Z,8.24
2022-11-29T23:12:25.423Z,8.27
2022-11-29T23:14:56.635Z,8.30
2022-11-29T23:17:26.463Z,8.35
2022-11-29T23:19:54.541Z,8.35
2022-11-29T23:22:22.712Z,8.35
2022-11-29T23:24:50.595Z,8.32
2022-11-29T23:27:18.738Z,8.30
2022-11-29T23:29:46.620Z,8.30
2022-11-29T23:32:14.777Z,8.31
2022-11-29T23:34:44.234Z,8.34
2022-11-29T23:37:12.624Z,8.36
2022-11-29T23:39:40.575Z,8.36
2022-11-29T23:42:11.508Z,8.34
2022-11-29T23:44:39.372Z,8.30
2022-11-29T23:47:07.702Z,8.30
2022-11-29T23:49:39.677Z,8.30
2022-11-29T23:52:09.133Z,8.30
2022-11-29T23:54:37.058Z,8.30
2022-11-29T23:57:05.322Z,8.31
2022-11-29T23:59:33.201Z,8.29
